createdAt,value
2023-03-31T08:45:36.329Z,99456.31
2023-03-31T08:47:40.914Z,99456.31
2023-03-31T08:49:54.621Z,99254.13
2023-03-31T08:52:01.750Z,99185.25
2023-03-31T08:54:08.165Z,99135.91
2023-03-31T08:56:17.131Z,99119.72
2023-03-31T08:58:28.414Z,99094.44
2023-03-31T09:01:00.396Z,99090.19
2023-03-31T09:03:27.278Z,99088.81
2023-03-31T09:05:52.751Z,99113.69
2023-03-31T09:08:35.624Z,99121.19
2023-03-31T09:10:49.861Z,99151.50
2023-03-31T09:12:59.510Z,99170.16
2023-03-31T09:15:09.838Z,99160.44
2023-03-31T09:17:41.164Z,99138.19
2023-03-31T09:19:56.188Z,99153.16
2023-03-31T09:22:01.659Z,99164.22
2023-03-31T09:24:12.436Z,99166.31
2023-03-31T09:26:27.391Z,99155.53
2023-03-31T09:28:39.866Z,99125.47
2023-03-31T09:30:42.864Z,99146.78
2023-03-31T09:32:48.271Z,99136.84
2023-03-31T09:34:57.339Z,99121.19
2023-03-31T09:36:59.942Z,99088.28
2023-03-31T09:39:02.339Z,99083.69
2023-03-31T09:41:05.499Z,99094.56
2023-03-31T09:43:25.090Z,99135.31
2023-03-31T09:45:28.612Z,99153.03
2023-03-31T09:47:47.495Z,99213.56
2023-03-31T09:49:54.132Z,99267.56
2023-03-31T09:52:26.786Z,99354.16
2023-03-31T09:54:54.328Z,99365.19
2023-03-31T09:56:56.840Z,99364.09
2023-03-31T09:59:02.927Z,99388.53
2023-03-31T10:01:11.745Z,99405.03
2023-03-31T10:03:14.608Z,99436.16
2023-03-31T10:05:23.073Z,99443.25
2023-03-31T10:07:26.404Z,99477.91
2023-03-31T10:09:31.815Z,99489.25
2023-03-31T10:11:34.277Z,99506.00
2023-03-31T10:13:49.391Z,99528.81
2023-03-31T10:15:54.028Z,99551.19
2023-03-31T10:17:59.255Z,99490.37
2023-03-31T10:20:19.700Z,99475.25
2023-03-31T10:22:22.272Z,99485.41
2023-03-31T10:24:25.135Z,99472.00
2023-03-31T10:26:28.955Z,99466.06
2023-03-31T10:28:35.341Z,99447.69
2023-03-31T10:30:40.681Z,99451.34
2023-03-31T10:32:44.206Z,99469.03
2023-03-31T10:34:46.899Z,99506.91
2023-03-31T10:36:52.158Z,99513.84
2023-03-31T10:38:55.972Z,99553.34
2023-03-31T10:40:59.699Z,99536.28
2023-03-31T10:43:27.039Z,99522.19
2023-03-31T10:45:37.680Z,99544.09
2023-03-31T10:47:41.501Z,99554.72
2023-03-31T10:49:45.013Z,99527.84
2023-03-31T10:52:01.623Z,99503.97
2023-03-31T10:54:04.589Z,99491.31
2023-03-31T10:56:26.101Z,99437.34
2023-03-31T10:58:43.750Z,99423.53
2023-03-31T11:01:20.760Z,99411.12
2023-03-31T11:03:52.663Z,99411.66
2023-03-31T11:06:09.948Z,99393.81
2023-03-31T11:08:21.522Z,99426.56
2023-03-31T11:10:32.879Z,99447.03
2023-03-31T11:12:44.045Z,99444.94
2023-03-31T11:15:16.523Z,99444.25
2023-03-31T11:17:25.367Z,99480.28
2023-03-31T11:20:07.258Z,99556.97
2023-03-31T11:22:34.677Z,99561.72
2023-03-31T11:25:16.208Z,99568.91
2023-03-31T11:27:42.655Z,99576.91
2023-03-31T11:30:05.359Z,99573.00
2023-03-31T11:32:36.028Z,99549.09
2023-03-31T11:34:53.847Z,99545.81
2023-03-31T11:37:19.637Z,99540.28
2023-03-31T11:39:47.419Z,99533.66
2023-03-31T11:41:53.770Z,99509.44
2023-03-31T11:44:05.106Z,99496.31
2023-03-31T11:46:07.574Z,99497.09
2023-03-31T11:48:59.898Z,99495.03
2023-03-31T11:51:07.378Z,99450.44
2023-03-31T11:53:21.012Z,99450.59
2023-03-31T11:55:27.496Z,99485.25
2023-03-31T11:57:40.172Z,99463.44
2023-03-31T11:59:44.159Z,99521.47
2023-03-31T12:01:59.255Z,99546.94
2023-03-31T12:04:10.007Z,99530.50
2023-03-31T12:06:19.088Z,99511.41
2023-03-31T12:08:33.643Z,99506.03
2023-03-31T12:10:38.576Z,99490.44
2023-03-31T12:12:56.236Z,99500.69
2023-03-31T12:15:07.630Z,99505.37
2023-03-31T12:17:16.139Z,99508.88
2023-03-31T12:19:36.340Z,99506.00
2023-03-31T12:21:43.672Z,99496.75
2023-03-31T12:23:46.564Z,99505.37
2023-03-31T12:26:18.332Z,99509.31
2023-03-31T12:28:21.818Z,99527.19
2023-03-31T12:30:39.266Z,99530.41
2023-03-31T12:32:47.472Z,99521.72
2023-03-31T12:34:56.975Z,99507.75
2023-03-31T12:37:49.307Z,99490.59
2023-03-31T12:40:26.966Z,99506.91
2023-03-31T12:42:48.093Z,99527.69
2023-03-31T12:45:15.131Z,99563.16
2023-03-31T12:47:45.792Z,99582.37
2023-03-31T12:49:50.342Z,99559.41
2023-03-31T12:51:59.352Z,99539.56
2023-03-31T12:54:18.350Z,99525.31
2023-03-31T12:56:21.894Z,99505.97
2023-03-31T12:58:27.572Z,99497.06
2023-03-31T13:00:30.748Z,99501.50
2023-03-31T13:02:33.740Z,99499.91
2023-03-31T13:04:38.007Z,99487.03
2023-03-31T13:06:41.559Z,99474.72
2023-03-31T13:09:03.814Z,99454.91
2023-03-31T13:11:06.291Z,99431.00
2023-03-31T13:13:17.214Z,99453.88
2023-03-31T13:15:20.102Z,99451.63
2023-03-31T13:17:27.478Z,99472.78
2023-03-31T13:19:36.676Z,99457.34
2023-03-31T13:21:54.662Z,99441.09
2023-03-31T13:24:03.282Z,99436.28
2023-03-31T13:26:06.968Z,99422.09
2023-03-31T13:28:18.493Z,99402.25
2023-03-31T13:30:53.199Z,99388.53
2023-03-31T13:33:21.157Z,99370.03
2023-03-31T13:35:31.902Z,99382.22
2023-03-31T13:37:47.562Z,99391.66
2023-03-31T13:40:25.567Z,99388.44
2023-03-31T13:43:07.061Z,99380.56
2023-03-31T13:45:21.720Z,99373.66
2023-03-31T13:47:58.328Z,99351.88
2023-03-31T13:50:13.037Z,99328.03
2023-03-31T13:52:26.600Z,99320.31
2023-03-31T13:55:07.078Z,99315.34
2023-03-31T13:57:18.195Z,99307.19
2023-03-31T13:59:26.190Z,99307.69
2023-03-31T14:01:46.898Z,99306.66
2023-03-31T14:03:55.808Z,99311.94
2023-03-31T14:06:36.221Z,99307.31
2023-03-31T14:08:38.692Z,99307.87
2023-03-31T14:10:43.140Z,99306.69
2023-03-31T14:12:47.811Z,99304.22
2023-03-31T14:14:54.682Z,99299.63
2023-03-31T14:17:00.889Z,99293.09
2023-03-31T14:19:27.479Z,99285.78
2023-03-31T14:21:39.472Z,99282.97
2023-03-31T14:24:17.918Z,99274.75
2023-03-31T14:26:38.690Z,99259.25
2023-03-31T14:29:15.163Z,99268.91
2023-03-31T14:31:35.682Z,99282.16
2023-03-31T14:33:41.019Z,99286.78
2023-03-31T14:35:53.235Z,99285.81
2023-03-31T14:37:57.116Z,99282.34
2023-03-31T14:40:02.155Z,99267.53
2023-03-31T14:42:10.520Z,99262.44
2023-03-31T14:44:16.227Z,99264.56
2023-03-31T14:46:22.433Z,99270.34
2023-03-31T14:48:24.905Z,99242.41
2023-03-31T14:50:34.983Z,99232.16
2023-03-31T14:52:37.476Z,99232.38
2023-03-31T14:54:41.345Z,99217.28
2023-03-31T14:56:49.680Z,99212.47
2023-03-31T14:58:54.302Z,99209.00
2023-03-31T15:00:56.899Z,99193.63
2023-03-31T15:03:02.079Z,99203.56
2023-03-31T15:05:07.978Z,99178.34
2023-03-31T15:07:11.979Z,99184.00
2023-03-31T15:09:21.321Z,99175.81
2023-03-31T15:11:23.954Z,99172.78
2023-03-31T15:13:44.332Z,99167.94
2023-03-31T15:15:49.378Z,99157.78
2023-03-31T15:17:51.948Z,99146.50
2023-03-31T15:19:56.372Z,99146.97
2023-03-31T15:22:10.764Z,99149.19
2023-03-31T15:24:14.709Z,99157.16
2023-03-31T15:26:20.802Z,99155.47
2023-03-31T15:28:34.171Z,99170.16
2023-03-31T15:30:37.631Z,99171.44
2023-03-31T15:32:40.910Z,99183.47
2023-03-31T15:34:46.577Z,99171.72
2023-03-31T15:36:49.406Z,99191.16
2023-03-31T15:38:59.541Z,99161.63
2023-03-31T15:41:02.590Z,99160.41
2023-03-31T15:43:24.484Z,99132.53
2023-03-31T15:45:31.353Z,99133.72
2023-03-31T15:47:38.712Z,99123.63
2023-03-31T15:49:53.312Z,99119.03
2023-03-31T15:51:57.044Z,99107.69
2023-03-31T15:53:59.739Z,99095.06
2023-03-31T15:56:02.292Z,99093.72
2023-03-31T15:58:05.154Z,99084.38
2023-03-31T16:00:34.274Z,99083.28
2023-03-31T16:02:43.376Z,99076.91
2023-03-31T16:04:49.759Z,99070.81
2023-03-31T16:06:57.296Z,99070.97
2023-03-31T16:09:08.253Z,99084.44
2023-03-31T16:11:15.410Z,99086.53
2023-03-31T16:13:23.974Z,99079.25
2023-03-31T16:15:49.220Z,99084.00
2023-03-31T16:17:59.985Z,99084.06
2023-03-31T16:20:08.918Z,99091.25
2023-03-31T16:22:17.815Z,99059.81
2023-03-31T16:24:21.770Z,99051.97
2023-03-31T16:26:27.942Z,99049.16
2023-03-31T16:28:34.246Z,99042.50
2023-03-31T16:30:39.840Z,99038.56
2023-03-31T16:33:05.163Z,99047.19
2023-03-31T16:35:08.431Z,99034.19
2023-03-31T16:37:11.749Z,99040.59
2023-03-31T16:39:14.212Z,99042.53
2023-03-31T16:41:17.398Z,99036.06
2023-03-31T16:43:22.241Z,99025.53
2023-03-31T16:45:24.928Z,99032.91
2023-03-31T16:47:35.163Z,99030.38
2023-03-31T16:49:39.272Z,99033.03
2023-03-31T16:51:41.979Z,99024.47
2023-03-31T16:53:45.470Z,99026.69
2023-03-31T16:55:48.168Z,99025.56
2023-03-31T16:57:51.202Z,99009.09
2023-03-31T16:59:54.730Z,99020.59
2023-03-31T17:01:58.001Z,99018.91
2023-03-31T17:04:01.144Z,99013.97
2023-03-31T17:06:08.619Z,99000.25
2023-03-31T17:08:12.513Z,99002.22
2023-03-31T17:10:16.374Z,99002.75
2023-03-31T17:12:19.503Z,99005.69
2023-03-31T17:14:22.894Z,98998.91
2023-03-31T17:16:32.818Z,98999.31
2023-03-31T17:18:44.413Z,99001.25
2023-03-31T17:20:46.948Z,98990.88
2023-03-31T17:22:49.424Z,98984.53
2023-03-31T17:24:57.285Z,98989.38
2023-03-31T17:27:01.676Z,98984.81
2023-03-31T17:29:04.970Z,98970.41
2023-03-31T17:31:19.100Z,98974.72
2023-03-31T17:33:23.723Z,98977.63
2023-03-31T17:35:26.373Z,98978.44
2023-03-31T17:37:29.723Z,98974.44
2023-03-31T17:39:33.556Z,98968.78
2023-03-31T17:41:37.591Z,98962.81
2023-03-31T17:43:45.511Z,98957.16
2023-03-31T17:45:48.700Z,98968.47
2023-03-31T17:47:52.152Z,98957.56
2023-03-31T17:49:55.501Z,98975.81
2023-03-31T17:51:59.258Z,98960.47
2023-03-31T17:54:03.750Z,98954.81
2023-03-31T17:56:06.832Z,98957.28
2023-03-31T17:58:14.016Z,98969.31
2023-03-31T18:00:17.929Z,98985.19
2023-03-31T18:02:21.173Z,98984.94
2023-03-31T18:04:24.555Z,98993.94
2023-03-31T18:06:28.063Z,98976.38
2023-03-31T18:08:36.596Z,98981.63
2023-03-31T18:10:41.151Z,98993.09
2023-03-31T18:12:44.951Z,99000.56
2023-03-31T18:14:48.964Z,98984.94
2023-03-31T18:16:52.190Z,99001.50
2023-03-31T18:18:55.866Z,98966.78
2023-03-31T18:21:04.782Z,98974.16
2023-03-31T18:23:07.565Z,98983.38
2023-03-31T18:25:10.922Z,98979.94
2023-03-31T18:27:13.902Z,98957.28
2023-03-31T18:29:16.998Z,98959.75
2023-03-31T18:31:22.562Z,98953.09
2023-03-31T18:33:27.654Z,98935.56
2023-03-31T18:35:31.211Z,98943.31
2023-03-31T18:37:34.623Z,98936.41
2023-03-31T18:39:38.826Z,98927.81
2023-03-31T18:41:49.286Z,98915.53
2023-03-31T18:43:52.943Z,98873.50
2023-03-31T18:45:58.582Z,98869.91
2023-03-31T18:48:03.863Z,98859.81
2023-03-31T18:50:07.626Z,98831.53
2023-03-31T18:52:11.452Z,98826.94
2023-03-31T18:54:14.924Z,98794.38
2023-03-31T18:56:18.011Z,98753.59
2023-03-31T18:58:23.021Z,98730.53
2023-03-31T19:00:30.450Z,98692.84
2023-03-31T19:02:34.041Z,98662.88
2023-03-31T19:04:38.642Z,98625.56
2023-03-31T19:06:41.582Z,98623.56
2023-03-31T19:08:45.183Z,98614.66
2023-03-31T19:10:49.654Z,98633.03
2023-03-31T19:12:53.654Z,98670.16
2023-03-31T19:14:57.679Z,98680.28
2023-03-31T19:17:01.971Z,98657.66
2023-03-31T19:19:05.216Z,98644.53
2023-03-31T19:21:32.842Z,98641.38
2023-03-31T19:23:36.222Z,98616.66
2023-03-31T19:25:39.905Z,98621.50
2023-03-31T19:27:45.015Z,98594.06
2023-03-31T19:29:49.435Z,98575.28
2023-03-31T19:31:53.017Z,98573.66
2023-03-31T19:33:58.283Z,98567.31
2023-03-31T19:36:02.449Z,98635.75
2023-03-31T19:38:06.102Z,98687.75
2023-03-31T19:40:10.446Z,98763.97
2023-03-31T19:42:16.583Z,98754.56
2023-03-31T19:44:19.542Z,98794.97
2023-03-31T19:46:23.180Z,98802.63
2023-03-31T19:48:32.524Z,98794.59
2023-03-31T19:50:35.801Z,98784.94
2023-03-31T19:52:39.209Z,98798.75
2023-03-31T19:54:43.099Z,98784.38
2023-03-31T19:56:48.025Z,98761.31
2023-03-31T19:58:54.121Z,98748.06
2023-03-31T20:00:58.044Z,98729.38
2023-03-31T20:03:02.573Z,98708.81
2023-03-31T20:05:06.494Z,98702.84
2023-03-31T20:07:10.018Z,98710.78
2023-03-31T20:09:14.045Z,98659.50
2023-03-31T20:11:17.820Z,98585.38
2023-03-31T20:13:21.788Z,98497.88
2023-03-31T20:15:26.432Z,98288.69
2023-03-31T20:17:29.953Z,98110.31
2023-03-31T20:19:33.677Z,97930.63
2023-03-31T20:21:39.114Z,97820.75
2023-03-31T20:23:44.288Z,97718.72
2023-03-31T20:25:47.874Z,97727.97
2023-03-31T20:27:51.984Z,97645.41
2023-03-31T20:29:55.331Z,97646.87
2023-03-31T20:31:58.842Z,97627.47
2023-03-31T20:34:02.747Z,97592.03
2023-03-31T20:36:17.196Z,97561.31
2023-03-31T20:38:19.919Z,97608.44
2023-03-31T20:40:23.197Z,97645.06
2023-03-31T20:42:26.881Z,97698.91
2023-03-31T20:44:30.561Z,97799.91
2023-03-31T20:46:35.020Z,97912.50
2023-03-31T20:48:45.012Z,97922.09
2023-03-31T20:50:48.713Z,97930.22
2023-03-31T20:52:51.382Z,97931.03
2023-03-31T20:54:54.279Z,97896.00
2023-03-31T20:56:57.212Z,97880.94
2023-03-31T20:59:00.550Z,97803.25
2023-03-31T21:01:04.062Z,97694.16
2023-03-31T21:03:06.707Z,97618.16
2023-03-31T21:05:09.668Z,97513.00
2023-03-31T21:07:12.042Z,97400.47
2023-03-31T21:09:16.404Z,97315.31
2023-03-31T21:11:19.780Z,97229.72
2023-03-31T21:13:22.113Z,97141.81
2023-03-31T21:15:24.436Z,97109.41
2023-03-31T21:17:27.129Z,97097.84
2023-03-31T21:19:29.569Z,97083.22
2023-03-31T21:21:32.005Z,97109.03
2023-03-31T21:23:34.808Z,97102.00
2023-03-31T21:25:37.096Z,97079.88
2023-03-31T21:27:39.371Z,97100.53
2023-03-31T21:29:41.976Z,97094.72
2023-03-31T21:31:45.888Z,97086.28
2023-03-31T21:33:48.395Z,97093.19
2023-03-31T21:35:52.529Z,97092.25
2023-03-31T21:37:54.801Z,97150.34
2023-03-31T21:39:57.110Z,97177.78
2023-03-31T21:42:00.176Z,97246.72
2023-03-31T21:44:03.293Z,97288.31
2023-03-31T21:46:06.807Z,97311.69
2023-03-31T21:48:10.932Z,97326.81
2023-03-31T21:50:13.285Z,97343.34
2023-03-31T21:52:15.626Z,97348.84
2023-03-31T21:54:18.300Z,97362.47
2023-03-31T21:56:23.055Z,97407.13
2023-03-31T21:58:28.798Z,97444.56
2023-03-31T22:00:32.503Z,97470.03
2023-03-31T22:02:35.153Z,97485.25
2023-03-31T22:04:37.784Z,97523.06
2023-03-31T22:06:40.372Z,97576.25
2023-03-31T22:08:43.137Z,97576.25
2023-03-31T22:10:56.210Z,97609.00
2023-03-31T22:12:58.618Z,97591.41
2023-03-31T22:15:01.258Z,97664.75
2023-03-31T22:17:04.085Z,97678.13
2023-03-31T22:19:07.486Z,97716.44
2023-03-31T22:21:15.974Z,97754.00
2023-03-31T22:23:20.654Z,97795.94
2023-03-31T22:25:22.982Z,97819.69
2023-03-31T22:27:25.608Z,97879.22
2023-03-31T22:29:28.003Z,97905.72
2023-03-31T22:31:30.948Z,97960.44
2023-03-31T22:33:33.760Z,97966.47
2023-03-31T22:35:36.468Z,98004.28
2023-03-31T22:37:39.067Z,97986.53
